sensor_id;sensor_type;location;lat;lon;timestamp;P1;durP1;ratioP1;P2;durP2;ratioP2
5650;SDS011;40241;52.684;9.758;2022-12-07T00:01:31;13.13;;;8.50;;
5650;SDS011;40241;52.684;9.758;2022-12-07T00:03:59;17.30;;;9.50;;
5650;SDS011;40241;52.684;9.758;2022-12-07T00:06:29;15.47;;;9.50;;
5650;SDS011;40241;52.684;9.758;2022-12-07T00:08:54;16.40;;;8.83;;
5650;SDS011;40241;52.684;9.758;2022-12-07T00:11:20;17.90;;;9.97;;
5650;SDS011;40241;52.684;9.758;2022-12-07T00:13:47;18.17;;;9.50;;
5650;SDS011;40241;52.684;9.758;2022-12-07T00:16:17;21.73;;;9.43;;
5650;SDS011;40241;52.684;9.758;2022-12-07T00:18:44;18.10;;;9.57;;
5650;SDS011;40241;52.684;9.758;2022-12-07T00:23:35;20.97;;;9.40;;
5650;SDS011;40241;52.684;9.758;2022-12-07T00:26:07;15.70;;;8.00;;
5650;SDS011;40241;52.684;9.758;2022-12-07T00:28:34;14.50;;;8.67;;
5650;SDS011;40241;52.684;9.758;2022-12-07T00:31:04;19.27;;;10.30;;
5650;SDS011;40241;52.684;9.758;2022-12-07T00:33:34;17.10;;;9.80;;
5650;SDS011;40241;52.684;9.758;2022-12-07T00:36:00;20.53;;;10.53;;
5650;SDS011;40241;52.684;9.758;2022-12-07T00:38:28;17.30;;;9.57;;
5650;SDS011;40241;52.684;9.758;2022-12-07T00:40:59;25.23;;;10.90;;
5650;SDS011;40241;52.684;9.758;2022-12-07T00:43:29;18.90;;;10.87;;
5650;SDS011;40241;52.684;9.758;2022-12-07T00:45:56;27.03;;;10.50;;
5650;SDS011;40241;52.684;9.758;2022-12-07T00:48:22;21.10;;;10.20;;
5650;SDS011;40241;52.684;9.758;2022-12-07T00:50:48;16.00;;;9.90;;
5650;SDS011;40241;52.684;9.758;2022-12-07T00:53:15;21.17;;;10.53;;
5650;SDS011;40241;52.684;9.758;2022-12-07T00:55:41;22.20;;;10.63;;
5650;SDS011;40241;52.684;9.758;2022-12-07T00:58:07;19.37;;;10.37;;
5650;SDS011;40241;52.684;9.758;2022-12-07T01:00:33;19.03;;;11.43;;
5650;SDS011;40241;52.684;9.758;2022-12-07T01:03:00;20.70;;;10.50;;
5650;SDS011;40241;52.684;9.758;2022-12-07T01:05:25;17.77;;;9.70;;
5650;SDS011;40241;52.684;9.758;2022-12-07T01:07:51;19.10;;;10.40;;
5650;SDS011;40241;52.684;9.758;2022-12-07T01:10:17;18.77;;;10.50;;
5650;SDS011;40241;52.684;9.758;2022-12-07T01:12:42;22.30;;;10.67;;
5650;SDS011;40241;52.684;9.758;2022-12-07T01:15:08;18.70;;;10.13;;
5650;SDS011;40241;52.684;9.758;2022-12-07T01:17:33;17.00;;;10.00;;
5650;SDS011;40241;52.684;9.758;2022-12-07T01:19:59;18.30;;;9.93;;
5650;SDS011;40241;52.684;9.758;2022-12-07T01:22:25;21.77;;;11.13;;
5650;SDS011;40241;52.684;9.758;2022-12-07T01:24:51;20.70;;;11.60;;
5650;SDS011;40241;52.684;9.758;2022-12-07T01:27:16;17.67;;;10.60;;
5650;SDS011;40241;52.684;9.758;2022-12-07T01:29:42;21.50;;;10.87;;
5650;SDS011;40241;52.684;9.758;2022-12-07T01:32:07;19.73;;;11.23;;
5650;SDS011;40241;52.684;9.758;2022-12-07T01:34:33;18.00;;;11.60;;
5650;SDS011;40241;52.684;9.758;2022-12-07T01:36:58;17.83;;;10.47;;
5650;SDS011;40241;52.684;9.758;2022-12-07T01:39:23;23.60;;;12.20;;
5650;SDS011;40241;52.684;9.758;2022-12-07T01:41:49;22.50;;;11.77;;
5650;SDS011;40241;52.684;9.758;2022-12-07T01:44:25;19.70;;;11.17;;
5650;SDS011;40241;52.684;9.758;2022-12-07T01:47:02;23.50;;;11.53;;
5650;SDS011;40241;52.684;9.758;2022-12-07T01:49:33;24.90;;;10.90;;
5650;SDS011;40241;52.684;9.758;2022-12-07T01:52:22;22.60;;;11.80;;
5650;SDS011;40241;52.684;9.758;2022-12-07T01:54:52;19.93;;;11.00;;
5650;SDS011;40241;52.684;9.758;2022-12-07T01:57:21;22.00;;;12.67;;
5650;SDS011;40241;52.684;9.758;2022-12-07T01:59:47;26.70;;;13.50;;
5650;SDS011;40241;52.684;9.758;2022-12-07T02:02:19;20.97;;;11.23;;
5650;SDS011;40241;52.684;9.758;2022-12-07T02:04:48;24.80;;;12.30;;
5650;SDS011;40241;52.684;9.758;2022-12-07T02:07:15;27.87;;;11.80;;
5650;SDS011;40241;52.684;9.758;2022-12-07T02:09:41;23.60;;;12.10;;
5650;SDS011;40241;52.684;9.758;2022-12-07T02:12:06;22.87;;;11.87;;
5650;SDS011;40241;52.684;9.758;2022-12-07T02:14:32;21.47;;;12.47;;
5650;SDS011;40241;52.684;9.758;2022-12-07T02:31:25;19.67;;;10.97;;
5650;SDS011;40241;52.684;9.758;2022-12-07T02:34:05;17.83;;;10.60;;
5650;SDS011;40241;52.684;9.758;2022-12-07T02:36:37;20.57;;;10.80;;
5650;SDS011;40241;52.684;9.758;2022-12-07T02:39:17;22.10;;;11.90;;
5650;SDS011;40241;52.684;9.758;2022-12-07T02:41:51;19.67;;;9.87;;
5650;SDS011;40241;52.684;9.758;2022-12-07T02:44:23;20.73;;;10.17;;
5650;SDS011;40241;52.684;9.758;2022-12-07T02:46:57;20.20;;;10.67;;
5650;SDS011;40241;52.684;9.758;2022-12-07T02:49:27;19.83;;;11.37;;
5650;SDS011;40241;52.684;9.758;2022-12-07T02:51:53;20.13;;;10.27;;
5650;SDS011;40241;52.684;9.758;2022-12-07T02:54:19;18.60;;;10.00;;
5650;SDS011;40241;52.684;9.758;2022-12-07T02:56:48;21.43;;;10.20;;
5650;SDS011;40241;52.684;9.758;2022-12-07T03:09:51;14.70;;;7.70;;
5650;SDS011;40241;52.684;9.758;2022-12-07T03:15:31;14.60;;;7.50;;
5650;SDS011;40241;52.684;9.758;2022-12-07T03:18:04;12.20;;;7.60;;
5650;SDS011;40241;52.684;9.758;2022-12-07T03:20:30;15.20;;;8.20;;
5650;SDS011;40241;52.684;9.758;2022-12-07T03:22:59;13.97;;;7.90;;
5650;SDS011;40241;52.684;9.758;2022-12-07T03:25:24;19.10;;;8.00;;
5650;SDS011;40241;52.684;9.758;2022-12-07T03:27:53;13.47;;;7.37;;
5650;SDS011;40241;52.684;9.758;2022-12-07T03:30:23;13.07;;;7.50;;
5650;SDS011;40241;52.684;9.758;2022-12-07T03:35:43;14.83;;;7.07;;
5650;SDS011;40241;52.684;9.758;2022-12-07T03:40:52;15.60;;;7.20;;
5650;SDS011;40241;52.684;9.758;2022-12-07T03:43:25;16.00;;;6.50;;
5650;SDS011;40241;52.684;9.758;2022-12-07T03:46:06;11.30;;;6.90;;
5650;SDS011;40241;52.684;9.758;2022-12-07T03:51:36;8.80;;;5.93;;
5650;SDS011;40241;52.684;9.758;2022-12-07T03:54:19;12.67;;;7.00;;
5650;SDS011;40241;52.684;9.758;2022-12-07T03:56:51;15.50;;;6.70;;
5650;SDS011;40241;52.684;9.758;2022-12-07T03:59:18;13.00;;;7.20;;
5650;SDS011;40241;52.684;9.758;2022-12-07T04:01:45;14.70;;;7.33;;
5650;SDS011;40241;52.684;9.758;2022-12-07T04:04:18;12.87;;;7.20;;
5650;SDS011;40241;52.684;9.758;2022-12-07T04:06:43;17.07;;;7.33;;
5650;SDS011;40241;52.684;9.758;2022-12-07T04:09:09;12.30;;;6.20;;
5650;SDS011;40241;52.684;9.758;2022-12-07T04:11:34;13.50;;;6.93;;
5650;SDS011;40241;52.684;9.758;2022-12-07T04:13:59;10.10;;;5.60;;
5650;SDS011;40241;52.684;9.758;2022-12-07T04:16:43;9.70;;;5.57;;
5650;SDS011;40241;52.684;9.758;2022-12-07T04:19:19;11.63;;;6.13;;
5650;SDS011;40241;52.684;9.758;2022-12-07T04:21:46;11.90;;;6.83;;
5650;SDS011;40241;52.684;9.758;2022-12-07T04:24:13;12.63;;;6.67;;
5650;SDS011;40241;52.684;9.758;2022-12-07T04:26:39;10.77;;;5.87;;
5650;SDS011;40241;52.684;9.758;2022-12-07T04:29:05;12.03;;;5.47;;
5650;SDS011;40241;52.684;9.758;2022-12-07T04:31:31;9.70;;;5.87;;
5650;SDS011;40241;52.684;9.758;2022-12-07T04:33:56;11.53;;;5.50;;
5650;SDS011;40241;52.684;9.758;2022-12-07T04:36:21;13.13;;;5.57;;
5650;SDS011;40241;52.684;9.758;2022-12-07T04:38:47;10.10;;;5.53;;
5650;SDS011;40241;52.684;9.758;2022-12-07T04:41:12;8.33;;;4.70;;
5650;SDS011;40241;52.684;9.758;2022-12-07T04:43:38;11.13;;;5.27;;
5650;SDS011;40241;52.684;9.758;2022-12-07T04:46:03;8.47;;;5.13;;
5650;SDS011;40241;52.684;9.758;2022-12-07T04:48:29;9.17;;;5.60;;
5650;SDS011;40241;52.684;9.758;2022-12-07T04:50:55;8.30;;;5.50;;
5650;SDS011;40241;52.684;9.758;2022-12-07T04:53:20;9.67;;;5.40;;
5650;SDS011;40241;52.684;9.758;2022-12-07T04:55:46;9.70;;;5.40;;
5650;SDS011;40241;52.684;9.758;2022-12-07T04:58:12;11.93;;;5.47;;
5650;SDS011;40241;52.684;9.758;2022-12-07T05:00:38;9.47;;;5.63;;
5650;SDS011;40241;52.684;9.758;2022-12-07T05:03:04;9.93;;;5.53;;
5650;SDS011;40241;52.684;9.758;2022-12-07T05:05:29;7.87;;;5.20;;
5650;SDS011;40241;52.684;9.758;2022-12-07T05:07:54;8.10;;;4.87;;
5650;SDS011;40241;52.684;9.758;2022-12-07T05:10:20;7.40;;;4.97;;
5650;SDS011;40241;52.684;9.758;2022-12-07T05:12:45;8.63;;;4.70;;
5650;SDS011;40241;52.684;9.758;2022-12-07T05:15:11;10.13;;;5.07;;
5650;SDS011;40241;52.684;9.758;2022-12-07T05:17:38;6.47;;;4.30;;
5650;SDS011;40241;52.684;9.758;2022-12-07T05:20:03;8.30;;;4.80;;
5650;SDS011;40241;52.684;9.758;2022-12-07T05:22:29;5.47;;;4.27;;
5650;SDS011;40241;52.684;9.758;2022-12-07T05:24:55;4.97;;;3.07;;
5650;SDS011;40241;52.684;9.758;2022-12-07T05:27:20;7.07;;;4.17;;
5650;SDS011;40241;52.684;9.758;2022-12-07T05:29:46;5.57;;;2.97;;
5650;SDS011;40241;52.684;9.758;2022-12-07T05:32:11;6.80;;;4.00;;
5650;SDS011;40241;52.684;9.758;2022-12-07T05:34:37;4.70;;;3.77;;
5650;SDS011;40241;52.684;9.758;2022-12-07T05:37:02;5.40;;;3.37;;
5650;SDS011;40241;52.684;9.758;2022-12-07T05:39:27;4.50;;;3.00;;
5650;SDS011;40241;52.684;9.758;2022-12-07T05:41:53;5.93;;;3.70;;
5650;SDS011;40241;52.684;9.758;2022-12-07T05:44:37;5.53;;;2.80;;
5650;SDS011;40241;52.684;9.758;2022-12-07T05:47:03;7.40;;;3.77;;
5650;SDS011;40241;52.684;9.758;2022-12-07T05:49:28;3.70;;;2.80;;
5650;SDS011;40241;52.684;9.758;2022-12-07T05:51:53;5.27;;;3.33;;
5650;SDS011;40241;52.684;9.758;2022-12-07T05:54:19;9.10;;;3.73;;
5650;SDS011;40241;52.684;9.758;2022-12-07T05:56:44;6.30;;;3.53;;
5650;SDS011;40241;52.684;9.758;2022-12-07T05:59:10;7.20;;;4.00;;
5650;SDS011;40241;52.684;9.758;2022-12-07T06:01:47;5.60;;;3.30;;
5650;SDS011;40241;52.684;9.758;2022-12-07T06:04:13;8.30;;;3.77;;
5650;SDS011;40241;52.684;9.758;2022-12-07T06:06:39;6.57;;;3.30;;
5650;SDS011;40241;52.684;9.758;2022-12-07T06:09:04;9.50;;;4.00;;
5650;SDS011;40241;52.684;9.758;2022-12-07T06:11:29;8.40;;;4.60;;
5650;SDS011;40241;52.684;9.758;2022-12-07T06:14:14;7.17;;;3.63;;
5650;SDS011;40241;52.684;9.758;2022-12-07T06:16:39;5.87;;;4.37;;
5650;SDS011;40241;52.684;9.758;2022-12-07T06:19:05;8.07;;;4.50;;
5650;SDS011;40241;52.684;9.758;2022-12-07T06:21:30;9.30;;;3.70;;
5650;SDS011;40241;52.684;9.758;2022-12-07T06:23:55;8.37;;;4.03;;
5650;SDS011;40241;52.684;9.758;2022-12-07T06:26:21;13.00;;;3.77;;
5650;SDS011;40241;52.684;9.758;2022-12-07T06:28:46;8.17;;;5.53;;
5650;SDS011;40241;52.684;9.758;2022-12-07T06:31:12;12.07;;;5.97;;
5650;SDS011;40241;52.684;9.758;2022-12-07T06:33:37;12.63;;;5.90;;
5650;SDS011;40241;52.684;9.758;2022-12-07T06:36:02;6.40;;;4.37;;
5650;SDS011;40241;52.684;9.758;2022-12-07T06:38:28;9.43;;;5.20;;
5650;SDS011;40241;52.684;9.758;2022-12-07T06:40:53;10.77;;;5.90;;
5650;SDS011;40241;52.684;9.758;2022-12-07T06:43:19;16.60;;;7.47;;
5650;SDS011;40241;52.684;9.758;2022-12-07T06:45:44;16.00;;;7.10;;
5650;SDS011;40241;52.684;9.758;2022-12-07T06:48:09;9.47;;;5.97;;
5650;SDS011;40241;52.684;9.758;2022-12-07T06:50:35;8.90;;;5.20;;
5650;SDS011;40241;52.684;9.758;2022-12-07T06:53:00;9.97;;;5.70;;
5650;SDS011;40241;52.684;9.758;2022-12-07T06:55:25;7.17;;;4.40;;
5650;SDS011;40241;52.684;9.758;2022-12-07T06:57:51;8.30;;;4.20;;
5650;SDS011;40241;52.684;9.758;2022-12-07T07:00:16;6.93;;;3.87;;
5650;SDS011;40241;52.684;9.758;2022-12-07T07:02:42;9.03;;;4.43;;
5650;SDS011;40241;52.684;9.758;2022-12-07T07:05:07;6.63;;;3.47;;
5650;SDS011;40241;52.684;9.758;2022-12-07T07:07:33;5.80;;;3.90;;
5650;SDS011;40241;52.684;9.758;2022-12-07T07:09:58;6.67;;;3.77;;
5650;SDS011;40241;52.684;9.758;2022-12-07T07:12:24;4.77;;;3.57;;
5650;SDS011;40241;52.684;9.758;2022-12-07T07:14:49;7.10;;;3.87;;
5650;SDS011;40241;52.684;9.758;2022-12-07T07:17:14;6.93;;;3.80;;
5650;SDS011;40241;52.684;9.758;2022-12-07T07:19:40;8.10;;;4.37;;
5650;SDS011;40241;52.684;9.758;2022-12-07T07:22:05;5.20;;;3.70;;
5650;SDS011;40241;52.684;9.758;2022-12-07T07:24:31;5.37;;;4.10;;
5650;SDS011;40241;52.684;9.758;2022-12-07T07:26:56;4.20;;;2.80;;
5650;SDS011;40241;52.684;9.758;2022-12-07T07:29:21;6.10;;;3.97;;
5650;SDS011;40241;52.684;9.758;2022-12-07T07:31:47;8.93;;;4.50;;
5650;SDS011;40241;52.684;9.758;2022-12-07T07:34:12;6.07;;;4.70;;
5650;SDS011;40241;52.684;9.758;2022-12-07T07:36:38;8.70;;;4.93;;
5650;SDS011;40241;52.684;9.758;2022-12-07T07:39:03;7.27;;;4.37;;
5650;SDS011;40241;52.684;9.758;2022-12-07T07:41:29;6.00;;;3.90;;
5650;SDS011;40241;52.684;9.758;2022-12-07T07:43:55;9.20;;;4.40;;
5650;SDS011;40241;52.684;9.758;2022-12-07T07:46:21;9.80;;;3.30;;
5650;SDS011;40241;52.684;9.758;2022-12-07T07:48:46;10.27;;;3.70;;
5650;SDS011;40241;52.684;9.758;2022-12-07T07:51:11;6.97;;;3.50;;
5650;SDS011;40241;52.684;9.758;2022-12-07T07:53:37;4.33;;;2.70;;
5650;SDS011;40241;52.684;9.758;2022-12-07T07:56:02;4.63;;;3.20;;
5650;SDS011;40241;52.684;9.758;2022-12-07T07:58:28;5.50;;;3.20;;
5650;SDS011;40241;52.684;9.758;2022-12-07T08:00:53;3.40;;;1.87;;
5650;SDS011;40241;52.684;9.758;2022-12-07T08:03:19;3.43;;;2.63;;
5650;SDS011;40241;52.684;9.758;2022-12-07T08:05:45;2.30;;;2.10;;
5650;SDS011;40241;52.684;9.758;2022-12-07T08:08:10;2.87;;;2.33;;
5650;SDS011;40241;52.684;9.758;2022-12-07T08:10:36;2.77;;;2.33;;
5650;SDS011;40241;52.684;9.758;2022-12-07T08:13:02;3.50;;;2.17;;
5650;SDS011;40241;52.684;9.758;2022-12-07T08:15:38;5.80;;;2.63;;
5650;SDS011;40241;52.684;9.758;2022-12-07T08:18:06;5.03;;;2.60;;
5650;SDS011;40241;52.684;9.758;2022-12-07T08:20:33;7.40;;;3.53;;
5650;SDS011;40241;52.684;9.758;2022-12-07T08:22:59;4.13;;;3.60;;
5650;SDS011;40241;52.684;9.758;2022-12-07T08:25:26;8.93;;;4.53;;
5650;SDS011;40241;52.684;9.758;2022-12-07T08:27:51;8.03;;;4.80;;
5650;SDS011;40241;52.684;9.758;2022-12-07T08:30:17;4.30;;;3.50;;
5650;SDS011;40241;52.684;9.758;2022-12-07T08:32:44;7.77;;;3.60;;
5650;SDS011;40241;52.684;9.758;2022-12-07T08:35:10;6.10;;;3.83;;
5650;SDS011;40241;52.684;9.758;2022-12-07T08:37:35;7.60;;;3.77;;
5650;SDS011;40241;52.684;9.758;2022-12-07T08:40:01;4.33;;;3.10;;
5650;SDS011;40241;52.684;9.758;2022-12-07T08:42:28;4.10;;;2.70;;
5650;SDS011;40241;52.684;9.758;2022-12-07T08:44:55;5.30;;;3.00;;
5650;SDS011;40241;52.684;9.758;2022-12-07T08:47:22;3.40;;;2.93;;
5650;SDS011;40241;52.684;9.758;2022-12-07T08:49:48;5.30;;;3.33;;
5650;SDS011;40241;52.684;9.758;2022-12-07T08:52:16;2.83;;;2.63;;
5650;SDS011;40241;52.684;9.758;2022-12-07T08:54:42;7.00;;;3.07;;
5650;SDS011;40241;52.684;9.758;2022-12-07T08:57:08;3.97;;;2.73;;
5650;SDS011;40241;52.684;9.758;2022-12-07T08:59:35;4.50;;;2.50;;
5650;SDS011;40241;52.684;9.758;2022-12-07T09:02:02;4.20;;;2.53;;
5650;SDS011;40241;52.684;9.758;2022-12-07T09:04:28;4.77;;;3.13;;
5650;SDS011;40241;52.684;9.758;2022-12-07T09:06:54;5.13;;;3.03;;
5650;SDS011;40241;52.684;9.758;2022-12-07T09:09:20;3.37;;;3.07;;
5650;SDS011;40241;52.684;9.758;2022-12-07T09:11:46;3.10;;;2.20;;
5650;SDS011;40241;52.684;9.758;2022-12-07T09:14:11;13.43;;;2.50;;
5650;SDS011;40241;52.684;9.758;2022-12-07T09:16:37;3.20;;;2.33;;
5650;SDS011;40241;52.684;9.758;2022-12-07T09:19:03;3.80;;;3.03;;
5650;SDS011;40241;52.684;9.758;2022-12-07T09:21:29;9.30;;;2.90;;
5650;SDS011;40241;52.684;9.758;2022-12-07T09:23:54;2.40;;;2.20;;
5650;SDS011;40241;52.684;9.758;2022-12-07T09:26:20;2.63;;;2.43;;
5650;SDS011;40241;52.684;9.758;2022-12-07T09:28:45;4.90;;;2.43;;
5650;SDS011;40241;52.684;9.758;2022-12-07T09:31:10;3.23;;;2.27;;
5650;SDS011;40241;52.684;9.758;2022-12-07T09:33:36;3.63;;;2.47;;
5650;SDS011;40241;52.684;9.758;2022-12-07T09:36:02;3.20;;;2.17;;
5650;SDS011;40241;52.684;9.758;2022-12-07T09:38:28;3.33;;;2.23;;
5650;SDS011;40241;52.684;9.758;2022-12-07T09:40:54;4.47;;;2.97;;
5650;SDS011;40241;52.684;9.758;2022-12-07T09:43:21;4.30;;;2.50;;
5650;SDS011;40241;52.684;9.758;2022-12-07T09:45:50;4.53;;;2.40;;
5650;SDS011;40241;52.684;9.758;2022-12-07T09:48:39;2.37;;;2.17;;
5650;SDS011;40241;52.684;9.758;2022-12-07T09:51:20;1.80;;;1.70;;
5650;SDS011;40241;52.684;9.758;2022-12-07T09:53:47;1.60;;;1.50;;
5650;SDS011;40241;52.684;9.758;2022-12-07T09:56:14;2.83;;;2.47;;
5650;SDS011;40241;52.684;9.758;2022-12-07T09:58:40;2.93;;;1.20;;
5650;SDS011;40241;52.684;9.758;2022-12-07T10:03:32;3.93;;;1.30;;
5650;SDS011;40241;52.684;9.758;2022-12-07T10:05:57;3.00;;;1.50;;
5650;SDS011;40241;52.684;9.758;2022-12-07T10:08:24;1.73;;;1.63;;
5650;SDS011;40241;52.684;9.758;2022-12-07T10:10:54;2.33;;;1.47;;
5650;SDS011;40241;52.684;9.758;2022-12-07T10:16:25;2.13;;;1.37;;
5650;SDS011;40241;52.684;9.758;2022-12-07T10:18:55;2.40;;;1.20;;
5650;SDS011;40241;52.684;9.758;2022-12-07T10:21:24;2.10;;;1.43;;
5650;SDS011;40241;52.684;9.758;2022-12-07T10:26:32;1.43;;;1.33;;
5650;SDS011;40241;52.684;9.758;2022-12-07T10:31:40;1.40;;;1.40;;
5650;SDS011;40241;52.684;9.758;2022-12-07T10:34:15;3.57;;;1.60;;
5650;SDS011;40241;52.684;9.758;2022-12-07T10:36:49;4.07;;;1.70;;
5650;SDS011;40241;52.684;9.758;2022-12-07T10:39:17;1.73;;;1.63;;
5650;SDS011;40241;52.684;9.758;2022-12-07T10:41:57;4.00;;;1.87;;
5650;SDS011;40241;52.684;9.758;2022-12-07T10:44:25;2.23;;;2.03;;
5650;SDS011;40241;52.684;9.758;2022-12-07T10:50:22;1.90;;;1.80;;
5650;SDS011;40241;52.684;9.758;2022-12-07T10:55:15;4.73;;;2.43;;
5650;SDS011;40241;52.684;9.758;2022-12-07T11:00:37;2.20;;;1.77;;
5650;SDS011;40241;52.684;9.758;2022-12-07T11:05:54;1.87;;;1.60;;
5650;SDS011;40241;52.684;9.758;2022-12-07T11:08:47;5.00;;;1.30;;
5650;SDS011;40241;52.684;9.758;2022-12-07T11:11:19;1.63;;;1.53;;
5650;SDS011;40241;52.684;9.758;2022-12-07T11:13:56;1.50;;;1.30;;
5650;SDS011;40241;52.684;9.758;2022-12-07T11:16:57;1.53;;;1.40;;
5650;SDS011;40241;52.684;9.758;2022-12-07T11:19:39;1.50;;;1.40;;
5650;SDS011;40241;52.684;9.758;2022-12-07T11:22:29;2.37;;;1.40;;
5650;SDS011;40241;52.684;9.758;2022-12-07T11:30:49;1.00;;;0.97;;
5650;SDS011;40241;52.684;9.758;2022-12-07T11:36:16;1.57;;;0.90;;
5650;SDS011;40241;52.684;9.758;2022-12-07T11:38:53;2.50;;;1.27;;
5650;SDS011;40241;52.684;9.758;2022-12-07T11:41:27;3.23;;;1.20;;
5650;SDS011;40241;52.684;9.758;2022-12-07T11:44:01;1.33;;;1.23;;
5650;SDS011;40241;52.684;9.758;2022-12-07T11:46:35;2.80;;;1.30;;
5650;SDS011;40241;52.684;9.758;2022-12-07T11:49:19;1.43;;;1.33;;
5650;SDS011;40241;52.684;9.758;2022-12-07T11:51:52;2.20;;;2.10;;
5650;SDS011;40241;52.684;9.758;2022-12-07T11:54:25;3.47;;;1.60;;
5650;SDS011;40241;52.684;9.758;2022-12-07T11:56:55;2.27;;;1.67;;
5650;SDS011;40241;52.684;9.758;2022-12-07T11:59:30;2.07;;;1.40;;
5650;SDS011;40241;52.684;9.758;2022-12-07T12:02:11;1.77;;;1.63;;
5650;SDS011;40241;52.684;9.758;2022-12-07T12:07:24;2.23;;;1.60;;
5650;SDS011;40241;52.684;9.758;2022-12-07T12:20:27;1.40;;;1.30;;
5650;SDS011;40241;52.684;9.758;2022-12-07T12:23:11;1.73;;;1.50;;
5650;SDS011;40241;52.684;9.758;2022-12-07T12:25:39;1.50;;;1.40;;
5650;SDS011;40241;52.684;9.758;2022-12-07T12:28:05;2.17;;;1.70;;
5650;SDS011;40241;52.684;9.758;2022-12-07T12:30:32;2.20;;;1.63;;
5650;SDS011;40241;52.684;9.758;2022-12-07T12:33:33;2.10;;;1.87;;
5650;SDS011;40241;52.684;9.758;2022-12-07T12:39:26;5.53;;;1.67;;
5650;SDS011;40241;52.684;9.758;2022-12-07T12:51:54;1.80;;;1.10;;
5650;SDS011;40241;52.684;9.758;2022-12-07T12:57:32;3.10;;;1.80;;
5650;SDS011;40241;52.684;9.758;2022-12-07T13:00:02;2.50;;;1.40;;
5650;SDS011;40241;52.684;9.758;2022-12-07T13:02:51;1.00;;;0.90;;
5650;SDS011;40241;52.684;9.758;2022-12-07T13:05:19;4.33;;;1.20;;
5650;SDS011;40241;52.684;9.758;2022-12-07T13:26:12;2.77;;;1.70;;
5650;SDS011;40241;52.684;9.758;2022-12-07T13:28:40;1.93;;;1.73;;
5650;SDS011;40241;52.684;9.758;2022-12-07T13:33:55;1.93;;;1.60;;
5650;SDS011;40241;52.684;9.758;2022-12-07T13:36:24;2.20;;;2.00;;
5650;SDS011;40241;52.684;9.758;2022-12-07T13:39:17;2.27;;;1.70;;
5650;SDS011;40241;52.684;9.758;2022-12-07T13:41:44;3.23;;;1.60;;
5650;SDS011;40241;52.684;9.758;2022-12-07T13:44:15;9.50;;;1.70;;
5650;SDS011;40241;52.684;9.758;2022-12-07T13:49:30;4.93;;;2.10;;
5650;SDS011;40241;52.684;9.758;2022-12-07T13:54:49;3.13;;;1.60;;
5650;SDS011;40241;52.684;9.758;2022-12-07T13:57:23;1.63;;;1.47;;
5650;SDS011;40241;52.684;9.758;2022-12-07T13:59:50;4.50;;;1.67;;
5650;SDS011;40241;52.684;9.758;2022-12-07T14:02:20;1.77;;;1.50;;
5650;SDS011;40241;52.684;9.758;2022-12-07T14:04:51;3.90;;;1.30;;
5650;SDS011;40241;52.684;9.758;2022-12-07T14:07:27;3.70;;;1.77;;
5650;SDS011;40241;52.684;9.758;2022-12-07T14:09:54;2.10;;;1.37;;
5650;SDS011;40241;52.684;9.758;2022-12-07T14:12:29;4.87;;;2.00;;
5650;SDS011;40241;52.684;9.758;2022-12-07T14:14:55;5.63;;;1.30;;
5650;SDS011;40241;52.684;9.758;2022-12-07T14:17:23;5.00;;;1.53;;
5650;SDS011;40241;52.684;9.758;2022-12-07T14:19:54;3.30;;;2.60;;
5650;SDS011;40241;52.684;9.758;2022-12-07T14:27:38;1.50;;;0.73;;
5650;SDS011;40241;52.684;9.758;2022-12-07T14:30:04;2.53;;;0.53;;
5650;SDS011;40241;52.684;9.758;2022-12-07T14:32:30;1.20;;;0.40;;
5650;SDS011;40241;52.684;9.758;2022-12-07T14:37:22;1.93;;;0.47;;
5650;SDS011;40241;52.684;9.758;2022-12-07T14:39:48;0.60;;;0.40;;
5650;SDS011;40241;52.684;9.758;2022-12-07T14:42:13;0.50;;;0.40;;
5650;SDS011;40241;52.684;9.758;2022-12-07T14:44:39;1.03;;;0.40;;
5650;SDS011;40241;52.684;9.758;2022-12-07T14:47:04;0.60;;;0.50;;
5650;SDS011;40241;52.684;9.758;2022-12-07T14:49:30;0.77;;;0.67;;
5650;SDS011;40241;52.684;9.758;2022-12-07T14:51:55;2.20;;;0.97;;
5650;SDS011;40241;52.684;9.758;2022-12-07T14:54:20;3.43;;;1.40;;
5650;SDS011;40241;52.684;9.758;2022-12-07T14:56:55;2.20;;;1.00;;
5650;SDS011;40241;52.684;9.758;2022-12-07T14:59:21;2.10;;;1.20;;
5650;SDS011;40241;52.684;9.758;2022-12-07T15:01:46;0.70;;;0.70;;
5650;SDS011;40241;52.684;9.758;2022-12-07T15:04:12;2.50;;;0.60;;
5650;SDS011;40241;52.684;9.758;2022-12-07T15:06:37;0.50;;;0.50;;
5650;SDS011;40241;52.684;9.758;2022-12-07T15:09:04;1.77;;;0.90;;
5650;SDS011;40241;52.684;9.758;2022-12-07T15:11:29;0.70;;;0.50;;
5650;SDS011;40241;52.684;9.758;2022-12-07T15:13:55;1.50;;;0.50;;
5650;SDS011;40241;52.684;9.758;2022-12-07T15:16:33;0.90;;;0.50;;
5650;SDS011;40241;52.684;9.758;2022-12-07T15:18:59;1.60;;;0.53;;
5650;SDS011;40241;52.684;9.758;2022-12-07T15:21:24;1.50;;;0.50;;
5650;SDS011;40241;52.684;9.758;2022-12-07T15:23:49;2.13;;;0.70;;
5650;SDS011;40241;52.684;9.758;2022-12-07T15:26:15;0.70;;;0.63;;
5650;SDS011;40241;52.684;9.758;2022-12-07T15:28:41;7.37;;;0.60;;
5650;SDS011;40241;52.684;9.758;2022-12-07T15:31:13;2.37;;;0.43;;
5650;SDS011;40241;52.684;9.758;2022-12-07T15:33:39;1.43;;;0.53;;
5650;SDS011;40241;52.684;9.758;2022-12-07T15:36:05;1.30;;;0.63;;
5650;SDS011;40241;52.684;9.758;2022-12-07T15:38:31;3.27;;;0.70;;
5650;SDS011;40241;52.684;9.758;2022-12-07T15:40:56;1.90;;;0.60;;
5650;SDS011;40241;52.684;9.758;2022-12-07T15:43:22;1.20;;;0.60;;
5650;SDS011;40241;52.684;9.758;2022-12-07T15:46:06;0.60;;;0.50;;
5650;SDS011;40241;52.684;9.758;2022-12-07T15:48:33;1.83;;;0.87;;
5650;SDS011;40241;52.684;9.758;2022-12-07T15:51:02;1.10;;;0.70;;
5650;SDS011;40241;52.684;9.758;2022-12-07T15:53:29;1.00;;;0.87;;
5650;SDS011;40241;52.684;9.758;2022-12-07T15:55:54;2.83;;;1.10;;
5650;SDS011;40241;52.684;9.758;2022-12-07T15:58:19;2.10;;;1.87;;
5650;SDS011;40241;52.684;9.758;2022-12-07T16:00:45;2.40;;;1.63;;
5650;SDS011;40241;52.684;9.758;2022-12-07T16:03:11;3.57;;;1.43;;
5650;SDS011;40241;52.684;9.758;2022-12-07T16:05:37;2.40;;;1.20;;
5650;SDS011;40241;52.684;9.758;2022-12-07T16:08:02;3.27;;;1.70;;
5650;SDS011;40241;52.684;9.758;2022-12-07T16:10:28;3.33;;;1.50;;
5650;SDS011;40241;52.684;9.758;2022-12-07T16:12:53;2.37;;;1.53;;
5650;SDS011;40241;52.684;9.758;2022-12-07T16:15:18;3.07;;;1.27;;
5650;SDS011;40241;52.684;9.758;2022-12-07T16:17:44;2.07;;;1.87;;
5650;SDS011;40241;52.684;9.758;2022-12-07T16:20:09;1.73;;;1.50;;
5650;SDS011;40241;52.684;9.758;2022-12-07T16:22:35;1.63;;;1.53;;
5650;SDS011;40241;52.684;9.758;2022-12-07T16:25:00;2.83;;;1.50;;
5650;SDS011;40241;52.684;9.758;2022-12-07T16:27:26;2.10;;;1.87;;
5650;SDS011;40241;52.684;9.758;2022-12-07T16:29:51;1.87;;;1.40;;
5650;SDS011;40241;52.684;9.758;2022-12-07T16:32:16;1.20;;;1.00;;
5650;SDS011;40241;52.684;9.758;2022-12-07T16:34:42;2.23;;;1.47;;
5650;SDS011;40241;52.684;9.758;2022-12-07T16:37:07;1.63;;;1.27;;
5650;SDS011;40241;52.684;9.758;2022-12-07T16:39:33;1.70;;;1.60;;
5650;SDS011;40241;52.684;9.758;2022-12-07T16:41:59;3.03;;;2.67;;
5650;SDS011;40241;52.684;9.758;2022-12-07T16:44:24;3.73;;;2.60;;
5650;SDS011;40241;52.684;9.758;2022-12-07T16:46:50;2.70;;;2.27;;
5650;SDS011;40241;52.684;9.758;2022-12-07T16:49:15;5.87;;;3.03;;
5650;SDS011;40241;52.684;9.758;2022-12-07T16:51:41;7.43;;;3.90;;
5650;SDS011;40241;52.684;9.758;2022-12-07T16:54:10;4.30;;;3.13;;
5650;SDS011;40241;52.684;9.758;2022-12-07T16:56:36;5.90;;;3.70;;
5650;SDS011;40241;52.684;9.758;2022-12-07T16:59:02;5.23;;;3.70;;
5650;SDS011;40241;52.684;9.758;2022-12-07T17:01:27;7.43;;;3.70;;
5650;SDS011;40241;52.684;9.758;2022-12-07T17:03:54;4.60;;;2.87;;
5650;SDS011;40241;52.684;9.758;2022-12-07T17:06:21;3.77;;;2.80;;
5650;SDS011;40241;52.684;9.758;2022-12-07T17:08:49;3.57;;;2.60;;
5650;SDS011;40241;52.684;9.758;2022-12-07T17:11:16;6.77;;;1.83;;
5650;SDS011;40241;52.684;9.758;2022-12-07T17:13:46;3.03;;;2.33;;
5650;SDS011;40241;52.684;9.758;2022-12-07T17:16:30;5.60;;;3.20;;